Time;durP1;ratioP1;P1;durP2;ratioP2;P2;SDS_P1;SDS_P2;PMS_P1;PMS_P2;Temp;Humidity;BMP_temperature;BMP_pressure;BME280_temperature;BME280_humidity;BME280_pressure;Samples;Min_cycle;Max_cycle;Signal;HPM_P1;HPM_P2
2022/10/09 00:00:00;;;;;;;17.37;10.43;;;;;;;-141.97;66.31;47505.63;4973089;28;20923;-78
2022/10/09 00:02:25;;;;;;;19.27;10.77;;;;;;;-141.97;66.04;47519.06;4972737;28;20166;-78
2022/10/09 00:04:51;;;;;;;20.07;11.00;;;;;;;-141.97;65.95;47538.28;4972474;28;20172;-78
2022/10/09 00:07:16;;;;;;;15.60;10.20;;;;;;;-141.97;66.02;47522.91;4972625;28;20164;-78
2022/10/09 00:09:41;;;;;;;18.47;11.20;;;;;;;-141.97;66.05;47519.06;4972595;28;20176;-78
2022/10/09 00:12:07;;;;;;;18.87;10.80;;;;;;;-141.97;65.85;47522.91;4972619;28;20191;-78
2022/10/09 00:14:32;;;;;;;19.60;10.63;;;;;;;-141.97;65.99;47505.63;4972945;28;20183;-78
2022/10/09 00:16:57;;;;;;;19.30;11.17;;;;;;;-141.97;66.77;47511.38;4972608;28;20175;-78
2022/10/09 00:19:23;;;;;;;19.03;11.10;;;;;;;-141.97;66.83;47524.84;4972585;28;20326;-78
2022/10/09 00:21:48;;;;;;;18.87;11.20;;;;;;;-141.97;66.39;47497.94;4972986;28;20160;-78
2022/10/09 00:24:14;;;;;;;19.27;11.23;;;;;;;-141.97;66.05;47507.53;4978139;28;20250;-77
2022/10/09 00:26:39;;;;;;;17.80;10.77;;;;;;;-141.97;66.20;47511.38;4977610;28;20172;-78
2022/10/09 00:29:04;;;;;;;19.33;10.37;;;;;;;-141.97;66.61;47499.84;4972987;28;20211;-77
2022/10/09 00:31:30;;;;;;;18.07;10.30;;;;;;;-141.97;67.50;47503.69;4972736;28;20635;-78
2022/10/09 00:33:55;;;;;;;18.13;10.77;;;;;;;-141.97;67.81;47482.56;4972454;28;20199;-78
2022/10/09 00:36:23;;;;;;;17.47;10.37;;;;;;;-141.97;67.27;47505.63;4972474;28;20255;-77
2022/10/09 00:38:49;;;;;;;106.67;31.30;;;;;;;-141.97;66.92;47557.53;4975298;28;20168;-78
2022/10/09 00:41:17;;;;;;;199.37;69.83;;;;;;;-141.97;66.20;47534.44;4976933;28;20256;-78
2022/10/09 00:43:46;;;;;;;68.57;28.77;;;;;;;-141.97;65.58;47521.00;4976395;28;20172;-78
2022/10/09 00:46:22;;;;;;;37.63;17.43;;;;;;;-141.97;65.18;47507.53;4976344;28;20160;-78
2022/10/09 00:48:54;;;;;;;20.93;10.90;;;;;;;-141.97;65.15;47536.38;4974820;28;20636;-78
2022/10/09 00:51:20;;;;;;;20.23;11.60;;;;;;;-141.97;65.00;47511.38;4976036;28;20239;-78
2022/10/09 00:53:45;;;;;;;18.77;11.23;;;;;;;-141.97;64.65;47515.22;4975802;28;20199;-78
2022/10/09 00:56:11;;;;;;;17.77;10.37;;;;;;;-141.97;64.79;47511.38;4975947;28;20206;-78
2022/10/09 00:58:36;;;;;;;16.87;9.67;;;;;;;-141.97;65.09;47492.16;4976285;28;20169;-78
2022/10/09 01:01:02;;;;;;;16.60;9.63;;;;;;;-141.97;65.47;47472.94;4976182;28;20238;-78
2022/10/09 01:03:27;;;;;;;16.40;9.50;;;;;;;-141.97;65.43;47549.84;4976612;28;20183;-78
2022/10/09 01:06:05;;;;;;;15.23;9.70;;;;;;;-141.97;65.00;47480.63;4976164;28;20218;-78
2022/10/09 01:08:38;;;;;;;16.50;9.50;;;;;;;-141.97;65.15;47507.53;4975745;28;20714;-78
2022/10/09 01:11:11;;;;;;;16.70;9.57;;;;;;;-141.97;65.37;47505.63;4975759;28;20707;-78
2022/10/09 01:13:41;;;;;;;14.83;9.60;;;;;;;-141.97;65.65;47503.69;4975759;28;20184;-78
2022/10/09 01:16:17;;;;;;;16.07;9.07;;;;;;;-141.97;66.29;47522.91;4975991;28;20168;-77
2022/10/09 01:18:52;;;;;;;17.47;9.43;;;;;;;-141.97;65.99;47542.16;4975577;28;20186;-78
2022/10/09 01:21:55;;;;;;;15.03;9.40;;;;;;;-141.97;66.19;47619.03;4975556;28;20170;-78
2022/10/09 01:24:20;;;;;;;17.00;10.00;;;;;;;-141.97;66.37;47505.63;4915863;29;20341;-78
2022/10/09 01:26:57;;;;;;;15.17;9.23;;;;;;;-141.97;65.99;47496.00;4899964;29;20710;-78
2022/10/09 01:29:27;;;;;;;16.30;9.27;;;;;;;-141.97;65.73;47530.59;4915816;29;20636;-78
2022/10/09 01:31:53;;;;;;;15.93;9.27;;;;;;;-141.97;65.44;47540.22;4899717;29;20213;-78
2022/10/09 01:34:20;;;;;;;18.03;10.20;;;;;;;-141.97;65.99;47476.78;4915636;29;20750;-78
2022/10/09 01:36:46;;;;;;;16.53;9.90;;;;;;;-141.97;66.45;47507.53;4915754;29;20535;-78
2022/10/09 01:39:16;;;;;;;17.43;10.20;;;;;;;-141.97;67.40;47503.69;4916202;29;20182;-78
2022/10/09 01:41:43;;;;;;;18.23;10.50;;;;;;;-141.97;66.86;47494.09;4899995;29;20202;-78
2022/10/09 01:44:29;;;;;;;20.60;10.30;;;;;;;-141.97;67.06;47517.16;4915876;29;20170;-78
2022/10/09 01:46:55;;;;;;;20.37;10.23;;;;;;;-141.97;67.54;47542.16;4915350;29;20685;-78
2022/10/09 01:49:33;;;;;;;17.33;9.90;;;;;;;-141.97;67.36;47542.16;4899349;29;20217;-78
2022/10/09 01:52:10;;;;;;;16.47;10.43;;;;;;;-141.97;67.23;47488.31;4915421;29;20216;-79
2022/10/09 01:55:03;;;;;;;18.53;10.30;;;;;;;-141.97;68.82;47530.59;4915328;29;20229;-78
2022/10/09 01:57:39;;;;;;;19.47;9.57;;;;;;;-141.97;70.07;47507.53;4914851;29;20655;-78
2022/10/09 02:00:09;;;;;;;18.90;10.60;;;;;;;-141.97;70.15;47544.06;4932675;28;20682;-78
2022/10/09 02:02:36;;;;;;;15.40;9.73;;;;;;;-141.97;69.91;47524.84;4975276;28;20251;-78
2022/10/09 02:05:02;;;;;;;15.97;9.87;;;;;;;-141.97;69.75;47488.31;4974834;28;20645;-78
2022/10/09 02:07:30;;;;;;;18.00;9.57;;;;;;;-141.97;69.94;47553.69;4974864;28;20172;-78
2022/10/09 02:09:58;;;;;;;15.17;8.83;;;;;;;-141.97;69.80;47549.84;4974682;28;20202;-78
2022/10/09 02:12:27;;;;;;;14.53;9.37;;;;;;;-141.97;69.46;47515.22;4974552;28;20203;-78
2022/10/09 02:14:52;;;;;;;14.67;8.93;;;;;;;-141.97;69.03;47509.47;4974550;28;20223;-78
2022/10/09 02:17:25;;;;;;;15.73;8.70;;;;;;;-141.97;68.68;47521.00;4974537;28;20168;-79
2022/10/09 02:19:55;;;;;;;14.27;8.83;;;;;;;-141.97;68.99;47524.84;4974544;28;20176;-78
2022/10/09 02:22:26;;;;;;;15.70;8.90;;;;;;;-141.97;68.63;47505.63;4974450;28;20255;-79
2022/10/09 02:24:52;;;;;;;16.37;9.00;;;;;;;-141.97;68.63;47534.44;4974578;28;20172;-79
2022/10/09 02:27:20;;;;;;;17.10;8.90;;;;;;;-141.97;68.54;47546.00;4974581;28;20179;-79
2022/10/09 02:29:46;;;;;;;14.63;9.13;;;;;;;-141.97;68.32;47511.38;4974638;28;20172;-79
2022/10/09 02:32:12;;;;;;;17.57;9.20;;;;;;;-141.97;68.72;47557.53;4974291;28;20172;-79
2022/10/09 02:34:38;;;;;;;14.07;9.00;;;;;;;-141.97;68.79;47561.38;4974081;28;20168;-79
2022/10/09 02:37:04;;;;;;;14.60;9.60;;;;;;;-141.97;69.90;47499.84;4974369;28;20175;-79
2022/10/09 02:39:29;;;;;;;14.87;8.80;;;;;;;-141.97;70.21;47549.84;4974053;28;20172;-78
2022/10/09 02:41:54;;;;;;;16.33;9.93;;;;;;;-141.97;70.01;47538.28;4974144;28;20176;-78
2022/10/09 02:44:20;;;;;;;20.30;11.23;;;;;;;-141.97;69.98;47511.38;4974855;28;20200;-78
2022/10/09 02:46:45;;;;;;;17.77;10.30;;;;;;;-141.97;69.38;47536.38;4974368;28;20168;-78
2022/10/09 02:49:11;;;;;;;16.33;9.43;;;;;;;-141.97;69.36;47515.22;4974216;28;20184;-78
2022/10/09 02:51:36;;;;;;;16.87;10.20;;;;;;;-141.97;69.72;47630.56;4973964;28;20263;-79
2022/10/09 02:54:01;;;;;;;18.03;10.20;;;;;;;-141.97;70.08;47522.91;4973830;28;20227;-79
2022/10/09 02:56:28;;;;;;;16.70;10.10;;;;;;;-141.97;69.99;47542.16;4973812;28;20605;-78
2022/10/09 02:58:53;;;;;;;15.60;9.97;;;;;;;-141.97;69.78;47522.91;4973787;28;20168;-78
2022/10/09 03:01:19;;;;;;;20.77;10.13;;;;;;;-141.97;70.01;47521.00;4973003;28;20231;-78
2022/10/09 03:03:45;;;;;;;17.57;10.20;;;;;;;-141.97;69.94;47530.59;4973625;28;20168;-78
2022/10/09 03:06:14;;;;;;;15.43;9.17;;;;;;;-141.97;70.09;47522.91;4973784;28;20715;-78
2022/10/09 03:08:43;;;;;;;15.17;9.27;;;;;;;-141.97;69.62;47519.06;4973814;28;20648;-78
2022/10/09 03:11:09;;;;;;;15.67;9.33;;;;;;;-141.97;69.72;47521.00;4973519;28;20204;-78
2022/10/09 03:13:35;;;;;;;17.13;9.57;;;;;;;-141.97;69.46;47482.56;4973832;28;20663;-78
2022/10/09 03:16:03;;;;;;;18.37;9.90;;;;;;;-141.97;69.78;47469.09;4973329;28;20242;-78
2022/10/09 03:18:29;;;;;;;15.03;9.40;;;;;;;-141.97;69.74;47538.28;4973251;28;20172;-78
2022/10/09 03:20:54;;;;;;;15.30;9.80;;;;;;;-141.97;69.69;47507.53;4973484;28;20238;-78
2022/10/09 03:23:20;;;;;;;15.23;9.97;;;;;;;-141.97;70.03;47522.91;4974071;28;20171;-78
2022/10/09 03:25:57;;;;;;;13.13;9.07;;;;;;;-141.97;70.41;47542.16;4973501;28;20167;-78
2022/10/09 03:28:23;;;;;;;17.83;10.07;;;;;;;-141.97;70.33;47513.31;4981340;28;20636;-77
2022/10/09 03:30:48;;;;;;;17.70;9.77;;;;;;;-141.97;70.47;47515.22;4959007;28;20217;-78
2022/10/09 03:33:14;;;;;;;15.30;9.53;;;;;;;-141.97;70.18;47542.16;4953983;28;20649;-78
2022/10/09 03:35:40;;;;;;;16.10;9.90;;;;;;;-141.97;70.51;47517.16;4953961;29;20255;-78
2022/10/09 03:38:06;;;;;;;16.83;9.93;;;;;;;-141.97;71.11;47517.16;4953867;28;20208;-78
2022/10/09 03:40:31;;;;;;;18.20;10.43;;;;;;;-141.97;70.73;47522.91;4953791;28;20248;-78
2022/10/09 03:42:57;;;;;;;17.53;10.43;;;;;;;-141.97;70.72;47532.53;4953717;28;20256;-78
2022/10/09 03:45:22;;;;;;;18.60;9.93;;;;;;;-141.97;70.47;47559.44;4954278;28;20188;-78
2022/10/09 03:47:47;;;;;;;13.90;9.40;;;;;;;-141.97;70.59;47526.75;4953779;28;20176;-78
2022/10/09 03:50:15;;;;;;;17.00;9.93;;;;;;;-141.97;70.38;47501.78;4954617;29;20208;-79
2022/10/09 03:52:41;;;;;;;16.83;10.20;;;;;;;-141.97;70.26;47534.44;4956136;28;20176;-78
2022/10/09 03:55:07;;;;;;;15.33;9.90;;;;;;;-141.97;70.41;47540.22;4953339;28;20229;-77
2022/10/09 03:57:34;;;;;;;18.03;10.37;;;;;;;-141.97;70.81;47496.00;4953620;28;20165;-77
2022/10/09 03:59:59;;;;;;;16.90;9.97;;;;;;;-141.97;70.62;47546.00;4953645;28;20173;-77
2022/10/09 04:02:25;;;;;;;17.23;9.73;;;;;;;-141.97;70.60;47547.91;4953652;28;20184;-78
2022/10/09 04:04:50;;;;;;;17.63;10.30;;;;;;;-141.97;70.79;47517.16;4953400;28;20197;-78
2022/10/09 04:07:16;;;;;;;14.37;9.50;;;;;;;-141.97;70.50;47515.22;4953296;28;20172;-78
2022/10/09 04:09:41;;;;;;;17.17;9.63;;;;;;;-141.97;71.17;47507.53;4953505;28;20173;-78
2022/10/09 04:12:06;;;;;;;15.63;9.83;;;;;;;-141.97;70.57;47549.84;4953071;28;20279;-79
2022/10/09 04:14:32;;;;;;;16.97;9.80;;;;;;;-141.97;71.13;47532.53;4953382;28;20251;-78
2022/10/09 04:16:57;;;;;;;17.83;10.57;;;;;;;-141.97;71.22;47542.16;4953441;28;20235;-78
2022/10/09 04:19:23;;;;;;;17.40;10.10;;;;;;;-141.97;71.24;47555.59;4953323;28;20692;-79
2022/10/09 04:21:48;;;;;;;15.97;10.43;;;;;;;-141.97;70.86;47522.91;4953633;28;20180;-79
2022/10/09 04:24:13;;;;;;;16.00;10.00;;;;;;;-141.97;71.17;47561.38;4953148;28;20233;-79
2022/10/09 04:26:39;;;;;;;16.10;9.63;;;;;;;-141.97;70.96;47522.91;4952115;29;20176;-79
2022/10/09 04:29:04;;;;;;;17.97;9.63;;;;;;;-141.97;70.85;47563.28;4953451;28;20554;-78
2022/10/09 04:31:30;;;;;;;16.67;9.87;;;;;;;-141.97;71.31;47524.84;4953587;28;20206;-78
2022/10/09 04:33:55;;;;;;;17.83;9.67;;;;;;;-141.97;71.76;47549.84;4954646;28;20187;-78
2022/10/09 04:36:21;;;;;;;16.03;9.80;;;;;;;-141.97;71.78;47526.75;4954693;29;20255;-78
2022/10/09 04:38:46;;;;;;;16.33;10.27;;;;;;;-141.97;72.35;47507.53;4954351;28;20629;-78
2022/10/09 04:41:12;;;;;;;16.07;10.17;;;;;;;-141.97;71.99;47544.06;4953556;28;20633;-78
2022/10/09 04:43:37;;;;;;;16.33;9.70;;;;;;;-141.97;71.80;47517.16;4951667;29;20192;-78
2022/10/09 04:46:04;;;;;;;17.00;10.13;;;;;;;-141.97;72.09;47503.69;4952894;28;20215;-78
2022/10/09 04:48:30;;;;;;;17.57;9.67;;;;;;;-141.97;71.93;47519.06;4953376;28;20176;-77
2022/10/09 04:50:55;;;;;;;18.27;9.67;;;;;;;-141.97;72.59;47515.22;4953016;28;20201;-77
2022/10/09 04:53:20;;;;;;;15.33;9.90;;;;;;;-141.97;72.38;47522.91;4952982;28;20204;-78
2022/10/09 04:55:46;;;;;;;18.17;9.60;;;;;;;-141.97;71.69;47547.91;4952623;28;20224;-76
2022/10/09 04:58:12;;;;;;;15.37;9.90;;;;;;;-141.97;71.98;47565.22;4952878;28;20177;-78
2022/10/09 05:00:42;;;;;;;16.27;9.67;;;;;;;-141.97;71.24;47536.38;4952794;28;20173;-78
2022/10/09 05:03:08;;;;;;;16.90;9.90;;;;;;;-141.97;71.67;47521.00;4952775;28;20195;-77
2022/10/09 05:05:33;;;;;;;17.50;9.90;;;;;;;-141.97;71.95;47515.22;4952862;28;20180;-78
2022/10/09 05:07:59;;;;;;;15.40;9.63;;;;;;;-141.97;72.35;47509.47;4953206;28;20169;-78
2022/10/09 05:10:24;;;;;;;15.83;9.70;;;;;;;-141.97;72.04;47521.00;4952796;28;20204;-79
2022/10/09 05:12:49;;;;;;;17.27;9.63;;;;;;;-141.97;72.03;47549.84;4952786;28;20224;-79
2022/10/09 05:15:15;;;;;;;17.13;9.67;;;;;;;-141.97;71.35;47536.38;4952900;28;20553;-79
2022/10/09 05:17:40;;;;;;;15.90;10.00;;;;;;;-141.97;70.82;47565.22;4953096;28;20259;-80
2022/10/09 05:20:06;;;;;;;16.90;9.43;;;;;;;-141.97;70.40;47538.28;4952695;28;20260;-80
2022/10/09 05:22:31;;;;;;;15.70;9.50;;;;;;;-141.97;70.25;47513.31;4953062;28;20176;-79
2022/10/09 05:24:57;;;;;;;18.83;9.73;;;;;;;-141.97;70.14;47472.94;4955548;28;20173;-78
2022/10/09 05:27:22;;;;;;;18.10;9.60;;;;;;;-141.97;69.22;47582.50;4956539;28;20180;-80
2022/10/09 05:29:47;;;;;;;16.30;8.90;;;;;;;-141.97;68.49;47542.16;4956056;28;20169;-79
2022/10/09 05:32:13;;;;;;;14.43;9.17;;;;;;;-141.97;68.59;47538.28;4955801;28;20685;-79
2022/10/09 05:34:39;;;;;;;13.77;9.00;;;;;;;-141.97;69.05;47561.38;4956339;28;20169;-79
2022/10/09 05:37:04;;;;;;;16.20;9.63;;;;;;;-141.97;69.58;47511.38;4956492;28;20538;-78
2022/10/09 05:39:31;;;;;;;15.60;9.37;;;;;;;-141.97;69.80;47553.69;4955958;28;20657;-78
2022/10/09 05:41:57;;;;;;;15.63;9.20;;;;;;;-141.97;70.29;47522.91;4955449;29;20181;-77
2022/10/09 05:44:22;;;;;;;12.50;9.07;;;;;;;-141.97;70.67;47486.41;4956370;28;20705;-78
2022/10/09 05:46:47;;;;;;;14.00;8.67;;;;;;;-141.97;70.01;47538.28;4955568;28;20176;-78
2022/10/09 05:49:13;;;;;;;13.97;8.83;;;;;;;-141.97;69.90;47515.22;4955760;28;20173;-79
2022/10/09 05:51:41;;;;;;;15.53;9.23;;;;;;;-141.97;69.39;47574.81;4955775;28;20259;-79
2022/10/09 05:54:08;;;;;;;15.20;9.03;;;;;;;-141.97;68.76;47553.69;4955633;28;20232;-79
2022/10/09 05:56:36;;;;;;;15.60;9.50;;;;;;;-141.97;69.03;47534.44;4955965;28;20668;-78
2022/10/09 05:59:07;;;;;;;15.10;9.53;;;;;;;-141.97;67.84;47526.75;4955660;28;20176;-79
2022/10/09 06:01:35;;;;;;;15.50;9.07;;;;;;;-141.97;68.05;47544.06;4955730;28;20172;-78
2022/10/09 06:04:01;;;;;;;15.50;9.57;;;;;;;-141.97;67.91;47599.81;4955395;28;20177;-78
2022/10/09 06:06:30;;;;;;;17.97;9.57;;;;;;;-141.97;66.75;47515.22;4955314;28;20219;-78
2022/10/09 06:08:57;;;;;;;15.40;9.57;;;;;;;-141.97;66.74;47530.59;4956437;28;20205;-78
2022/10/09 06:11:30;;;;;;;14.73;8.80;;;;;;;-141.97;67.32;47569.06;4955932;28;20703;-79
2022/10/09 06:13:57;;;;;;;13.80;9.07;;;;;;;-141.97;68.09;47536.38;4955541;28;20224;-78
2022/10/09 06:16:25;;;;;;;14.77;9.30;;;;;;;-141.97;68.89;47538.28;4955337;28;20171;-79
2022/10/09 06:18:52;;;;;;;14.00;9.40;;;;;;;-141.97;67.87;47517.16;4953976;29;20648;-77
2022/10/09 06:21:17;;;;;;;16.03;9.93;;;;;;;-141.97;67.64;47503.69;4955151;28;20165;-78
2022/10/09 06:23:43;;;;;;;14.47;9.00;;;;;;;-141.97;66.35;47536.38;4955553;28;20169;-78
2022/10/09 06:26:11;;;;;;;14.67;9.50;;;;;;;-141.97;65.40;47546.00;4956556;28;20546;-79
2022/10/09 06:28:37;;;;;;;16.83;9.93;;;;;;;-141.97;64.62;47542.16;4956500;28;20204;-78
2022/10/09 06:31:05;;;;;;;17.00;9.47;;;;;;;-141.97;64.25;47546.00;4954429;29;20235;-77
2022/10/09 06:33:32;;;;;;;13.20;9.10;;;;;;;-141.97;63.83;47549.84;4967939;28;20214;-76
2022/10/09 06:36:05;;;;;;;15.90;9.30;;;;;;;-141.97;63.92;47522.91;4975385;28;20176;-77
2022/10/09 06:38:32;;;;;;;14.03;9.70;;;;;;;-141.97;63.96;47474.88;4974266;28;20525;-78
2022/10/09 06:41:02;;;;;;;16.23;9.87;;;;;;;-141.97;64.12;47565.22;4974119;28;20227;-78
2022/10/09 06:43:28;;;;;;;13.90;9.27;;;;;;;-141.97;63.17;47522.91;4974232;28;20659;-79
2022/10/09 06:45:54;;;;;;;15.10;9.13;;;;;;;-141.97;63.13;47530.59;4974058;28;20237;-77
2022/10/09 06:48:19;;;;;;;14.50;8.90;;;;;;;-141.97;62.83;47532.53;4973978;28;20692;-79
2022/10/09 06:50:45;;;;;;;15.00;10.03;;;;;;;-141.97;62.38;47549.84;4973937;28;20191;-78
2022/10/09 06:53:16;;;;;;;15.50;9.50;;;;;;;-141.97;62.28;47515.22;4974196;28;20308;-81
2022/10/09 06:55:52;;;;;;;17.80;9.73;;;;;;;-141.97;61.17;47484.47;4973989;28;20228;-79
2022/10/09 06:58:17;;;;;;;15.43;9.20;;;;;;;-141.97;59.80;47507.53;4973866;28;20179;-78
2022/10/09 07:00:43;;;;;;;15.87;9.33;;;;;;;-141.97;59.34;47515.22;4973697;28;20168;-79
2022/10/09 07:03:08;;;;;;;16.83;9.47;;;;;;;-141.97;58.53;47507.53;4973707;28;20660;-78
2022/10/09 07:05:33;;;;;;;18.10;10.00;;;;;;;-141.97;57.60;47521.00;4973693;28;20259;-82
2022/10/09 07:07:59;;;;;;;18.63;10.40;;;;;;;-141.97;57.05;47469.09;4973697;28;20179;-78
2022/10/09 07:10:24;;;;;;;13.90;9.40;;;;;;;-141.97;56.54;47507.53;4973543;28;20203;-78
2022/10/09 07:12:49;;;;;;;14.77;9.47;;;;;;;-141.97;57.13;47519.06;4973424;28;20176;-78
2022/10/09 07:15:15;;;;;;;15.87;9.80;;;;;;;-141.97;55.67;47619.03;4973726;28;20172;-78
2022/10/09 07:17:40;;;;;;;17.17;9.43;;;;;;;-141.97;54.71;47507.53;4973308;28;20260;-77
2022/10/09 07:20:06;;;;;;;22.03;10.40;;;;;;;-141.97;53.15;47522.91;4973459;28;20992;-79
2022/10/09 07:22:31;;;;;;;17.40;9.77;;;;;;;-141.97;51.82;47511.38;4973228;28;20168;-79
2022/10/09 07:25:00;;;;;;;16.23;9.20;;;;;;;-141.97;51.26;47542.16;4973237;28;20168;-81
2022/10/09 07:27:25;;;;;;;19.03;10.80;;;;;;;-141.97;50.80;47515.22;4973455;28;20223;-80
2022/10/09 07:29:50;;;;;;;17.73;9.60;;;;;;;-141.97;50.09;47503.69;4972397;28;20554;-80
2022/10/09 07:32:16;;;;;;;11.50;8.10;;;;;;;-141.97;48.40;47486.41;4973415;28;20680;-80
2022/10/09 07:34:42;;;;;;;17.43;9.93;;;;;;;-141.97;48.06;47496.00;4973129;28;20585;-79
2022/10/09 07:37:08;;;;;;;11.23;8.20;;;;;;;-141.97;47.02;47467.19;4973219;28;20176;-79
2022/10/09 07:39:34;;;;;;;15.70;9.50;;;;;;;-141.97;46.78;47501.78;4973132;28;20172;-80
2022/10/09 07:42:00;;;;;;;10.50;7.90;;;;;;;-141.97;46.30;47424.91;4973205;28;20617;-80
2022/10/09 07:44:25;;;;;;;15.20;8.53;;;;;;;-141.97;45.72;47463.34;4971798;28;20163;-82
2022/10/09 07:46:51;;;;;;;12.00;7.53;;;;;;;-141.97;45.46;47457.56;4972741;28;20169;-80
2022/10/09 07:49:16;;;;;;;13.50;7.93;;;;;;;-141.97;46.12;47496.00;4973141;28;20195;-80
2022/10/09 07:51:42;;;;;;;12.40;7.93;;;;;;;-141.97;46.58;47340.34;4972831;28;20207;-81
2022/10/09 07:54:07;;;;;;;9.60;7.50;;;;;;;-141.97;47.37;47478.72;4971440;28;20227;-78
2022/10/09 07:56:36;;;;;;;11.80;7.53;;;;;;;-141.97;46.16;47463.34;4972775;28;20680;-79
2022/10/09 07:59:13;;;;;;;14.27;7.30;;;;;;;-141.97;45.01;47459.50;4972738;28;20196;-79
2022/10/09 08:01:39;;;;;;;12.30;8.00;;;;;;;-141.97;44.26;47422.97;4972929;28;20203;-78
2022/10/09 08:04:05;;;;;;;10.00;6.47;;;;;;;-141.97;43.83;47519.06;4972972;28;20176;-79
2022/10/09 08:06:30;;;;;;;11.53;6.90;;;;;;;-141.97;43.37;47499.84;4972974;28;20176;-77
2022/10/09 08:08:58;;;;;;;12.83;8.70;;;;;;;-141.97;42.40;47505.63;4972464;28;20176;-78
2022/10/09 08:11:25;;;;;;;9.03;6.80;;;;;;;-141.97;41.53;47457.56;4972703;28;20286;-78
2022/10/09 08:13:51;;;;;;;9.80;6.97;;;;;;;-141.97;40.11;47440.28;4972664;28;20559;-78
2022/10/09 08:16:18;;;;;;;9.80;6.63;;;;;;;-141.97;39.65;47471.03;4972637;28;20172;-78
2022/10/09 08:18:43;;;;;;;8.90;6.60;;;;;;;-141.97;39.13;47480.63;4972300;28;20251;-78
2022/10/09 08:21:15;;;;;;;8.10;6.50;;;;;;;-141.97;38.97;47478.72;4972450;28;20168;-78
2022/10/09 08:23:41;;;;;;;9.47;6.77;;;;;;;-141.97;38.91;47453.72;4972363;28;20176;-78
2022/10/09 08:26:18;;;;;;;9.53;7.10;;;;;;;-141.97;38.15;47465.25;4972440;28;20179;-78
2022/10/09 08:28:49;;;;;;;12.17;7.97;;;;;;;-141.97;38.41;47467.19;4972427;28;20639;-78
2022/10/09 08:31:16;;;;;;;10.70;7.63;;;;;;;-141.97;38.41;47457.56;4972179;28;20192;-78
2022/10/09 08:33:41;;;;;;;15.57;8.53;;;;;;;-141.97;39.06;47461.41;4972224;28;20172;-78
2022/10/09 08:36:09;;;;;;;11.10;7.30;;;;;;;-141.97;38.15;47455.66;4972275;28;20231;-79
2022/10/09 08:38:35;;;;;;;10.27;7.57;;;;;;;-141.97;37.33;47434.50;4972191;28;20172;-78
2022/10/09 08:41:13;;;;;;;13.13;8.90;;;;;;;-141.97;37.48;47426.81;4972249;28;20235;-78
2022/10/09 08:43:46;;;;;;;11.50;7.80;;;;;;;-141.97;37.37;47422.97;4972247;28;20172;-78
2022/10/09 08:46:28;;;;;;;9.53;7.20;;;;;;;-141.97;36.99;47426.81;4972287;28;20171;-77
2022/10/09 08:48:54;;;;;;;9.97;7.60;;;;;;;-141.97;36.72;47447.97;4972475;28;20175;-77
2022/10/09 08:51:24;;;;;;;13.27;7.50;;;;;;;-141.97;37.13;47380.69;4972421;28;20223;-77
2022/10/09 08:54:21;;;;;;;14.10;8.50;;;;;;;-141.97;36.81;47422.97;4972128;28;20633;-78
2022/10/09 08:56:49;;;;;;;12.93;7.70;;;;;;;-141.97;36.13;47457.56;4896694;29;20197;-77
2022/10/09 08:59:15;;;;;;;12.20;7.17;;;;;;;-141.97;35.60;47394.16;4914437;29;20178;-77
2022/10/09 09:01:47;;;;;;;8.70;6.50;;;;;;;-141.97;35.43;47426.81;4916621;29;20662;-77
2022/10/09 09:04:31;;;;;;;9.40;6.80;;;;;;;-141.97;35.29;47446.03;4916300;29;20697;-78
2022/10/09 09:07:28;;;;;;;11.23;6.80;;;;;;;-141.97;35.47;47451.81;4916456;29;20653;-78
2022/10/09 09:09:56;;;;;;;10.93;6.90;;;;;;;-141.97;35.79;47494.09;4860189;29;20204;-78
2022/10/09 09:12:43;;;;;;;8.80;6.63;;;;;;;-141.97;36.29;47576.75;4859985;29;20307;-79
2022/10/09 09:15:33;;;;;;;10.80;6.80;;;;;;;-141.97;36.13;47453.72;4860017;29;20200;-78
2022/10/09 09:18:17;;;;;;;9.97;6.37;;;;;;;-141.97;35.18;47403.75;4860076;29;20223;-78
2022/10/09 09:21:03;;;;;;;9.63;6.17;;;;;;;-141.97;34.79;47407.59;4859909;29;20241;-78
2022/10/09 09:23:39;;;;;;;9.70;6.23;;;;;;;-141.97;34.62;47405.69;4860028;29;20196;-78
2022/10/09 09:26:25;;;;;;;8.77;6.97;;;;;;;-141.97;34.14;47409.53;4859783;29;20180;-79
2022/10/09 09:28:58;;;;;;;9.43;6.40;;;;;;;-141.97;34.16;47388.38;4859932;29;20192;-78
2022/10/09 09:31:29;;;;;;;6.97;6.00;;;;;;;-141.97;34.53;47444.13;4860045;29;20216;-78
2022/10/09 09:34:13;;;;;;;8.43;6.20;;;;;;;-141.97;34.23;47407.59;4898306;29;20194;-77
2022/10/09 09:36:46;;;;;;;10.03;6.00;;;;;;;-141.97;33.90;47409.53;4919298;29;20230;-76
2022/10/09 09:39:12;;;;;;;6.90;5.80;;;;;;;-141.97;33.98;47411.44;4917936;29;20214;-76
2022/10/09 09:41:42;;;;;;;7.93;5.87;;;;;;;-141.97;33.64;47405.69;4920408;29;20178;-77
2022/10/09 09:44:12;;;;;;;7.60;5.67;;;;;;;-141.97;33.35;47438.34;4915679;29;20174;-78
2022/10/09 09:46:39;;;;;;;8.03;5.93;;;;;;;-141.97;33.83;47392.22;4943926;28;20199;-79
2022/10/09 09:49:19;;;;;;;6.83;5.50;;;;;;;-141.97;34.20;47442.19;4975123;28;20186;-78
2022/10/09 09:51:47;;;;;;;7.40;5.70;;;;;;;-141.97;33.88;47426.81;4974888;28;20207;-78
2022/10/09 09:54:19;;;;;;;6.80;5.63;;;;;;;-141.97;33.33;47384.53;4974811;28;20224;-78
2022/10/09 09:56:45;;;;;;;6.97;6.00;;;;;;;-141.97;32.96;47401.84;4974887;28;20272;-79
2022/10/09 09:59:24;;;;;;;8.03;5.90;;;;;;;-141.97;33.07;47382.63;4973547;28;20255;-79
2022/10/09 10:02:18;;;;;;;8.30;6.17;;;;;;;-141.97;32.88;47390.31;4975056;28;20705;-80
2022/10/09 10:04:55;;;;;;;6.83;5.93;;;;;;;-141.97;32.98;47434.50;4918088;29;20281;-77
2022/10/09 10:07:37;;;;;;;8.03;5.47;;;;;;;-141.97;33.15;47373.00;4919798;29;20193;-77
2022/10/09 10:10:14;;;;;;;9.53;5.73;;;;;;;-141.97;33.03;47411.44;4914689;29;20781;-79
2022/10/09 10:12:46;;;;;;;7.87;6.13;;;;;;;-141.97;33.09;47388.38;4899522;29;20218;-78
2022/10/09 10:15:30;;;;;;;8.03;5.27;;;;;;;-141.97;33.01;47357.63;4914818;29;20246;-78
2022/10/09 10:18:11;;;;;;;6.33;5.20;;;;;;;-141.97;32.77;47390.31;4914943;29;20241;-78
2022/10/09 10:20:55;;;;;;;8.50;5.30;;;;;;;-141.97;32.81;47374.94;4914967;29;20174;-77
2022/10/09 10:23:31;;;;;;;6.60;5.00;;;;;;;-141.97;32.88;47392.22;4915389;29;20635;-77
2022/10/09 10:26:00;;;;;;;7.10;4.93;;;;;;;-141.97;33.06;47394.16;4914973;29;20233;-78
2022/10/09 10:28:36;;;;;;;6.93;4.90;;;;;;;-141.97;33.11;47392.22;4914769;29;20186;-78
2022/10/09 10:31:06;;;;;;;6.10;5.00;;;;;;;-141.97;32.71;47388.38;4914904;29;20201;-78
2022/10/09 10:33:35;;;;;;;5.83;4.80;;;;;;;-141.97;32.52;47444.13;4914981;29;20167;-78
2022/10/09 10:36:00;;;;;;;6.57;5.07;;;;;;;-141.97;32.23;47386.47;4915185;29;20190;-79
2022/10/09 10:38:35;;;;;;;5.67;5.03;;;;;;;-141.97;32.10;47419.13;4914620;29;20181;-77
2022/10/09 10:41:22;;;;;;;7.13;5.20;;;;;;;-141.97;32.51;47394.16;4924435;28;20258;-78
2022/10/09 10:43:51;;;;;;;6.00;4.85;;;;;;;-141.97;32.51;47415.28;4974231;28;20179;-78
2022/10/09 10:46:22;;;;;;;7.70;4.67;;;;;;;-141.97;32.37;47405.69;4973899;28;20164;-79
2022/10/09 10:48:48;;;;;;;6.50;5.23;;;;;;;-141.97;32.78;47348.03;4973733;28;20176;-79
2022/10/09 10:51:32;;;;;;;8.03;5.00;;;;;;;-141.97;33.00;47430.66;4973679;28;20204;-78
2022/10/09 10:54:12;;;;;;;6.93;5.00;;;;;;;-141.97;32.91;47417.22;4973938;28;20532;-78
2022/10/09 10:56:46;;;;;;;7.30;4.97;;;;;;;-141.97;32.80;47415.28;4972661;28;20192;-78
2022/10/09 10:59:38;;;;;;;6.03;4.70;;;;;;;-141.97;33.00;47415.28;4974033;28;20528;-78
2022/10/09 11:02:37;;;;;;;6.93;4.70;;;;;;;-141.97;32.87;47413.38;4974038;28;20183;-78
2022/10/09 11:05:37;;;;;;;6.93;4.90;;;;;;;-141.97;31.95;47334.56;4973750;28;20172;-78
2022/10/09 11:08:25;;;;;;;7.27;5.13;;;;;;;-141.97;32.37;47446.03;4973538;28;20195;-78
2022/10/09 11:11:24;;;;;;;7.15;5.05;;;;;;;-141.97;32.39;47390.31;4973360;28;20287;-78
2022/10/09 11:14:27;;;;;;;6.67;4.83;;;;;;;-141.97;32.99;47438.34;4973281;28;20246;-79
2022/10/09 11:17:05;;;;;;;5.77;5.03;;;;;;;-141.97;32.75;47415.28;4913772;29;20296;-78
2022/10/09 11:19:52;;;;;;;8.17;4.90;;;;;;;-141.97;32.85;47419.13;4913647;29;20186;-79